Time;durP1;ratioP1;P1;durP2;ratioP2;P2;SDS_P1;SDS_P2;PMS_P1;PMS_P2;Temp;Humidity;BMP_temperature;BMP_pressure;BME280_temperature;BME280_humidity;BME280_pressure;Samples;Min_cycle;Max_cycle;Signal;HPM_P1;HPM_P2
2023/10/05 00:01:46;;;;;;;7.22;2.15;;;17.10;99.90;;;;;;4992967;28;20038;-63
2023/10/05 00:04:15;;;;;;;9.07;2.15;;;17.10;99.90;;;;;;4993075;28;20506;-62
2023/10/05 00:06:42;;;;;;;5.85;1.83;;;17.10;99.90;;;;;;4999813;28;20038;-64
2023/10/05 00:09:13;;;;;;;6.20;1.75;;;17.00;99.90;;;;;;5012063;28;20061;-62
2023/10/05 00:11:39;;;;;;;9.52;2.17;;;17.10;99.90;;;;;;5015116;28;20034;-63
2023/10/05 00:14:10;;;;;;;11.23;2.88;;;17.10;99.90;;;;;;5015981;28;20025;-62
2023/10/05 00:16:36;;;;;;;10.23;2.38;;;17.00;99.90;;;;;;5031552;28;20493;-63
2023/10/05 00:19:12;;;;;;;6.53;2.15;;;17.00;99.90;;;;;;4998834;28;20495;-63
2023/10/05 00:21:46;;;;;;;8.32;2.05;;;17.00;99.90;;;;;;5001786;28;20037;-66
2023/10/05 00:24:12;;;;;;;7.28;2.50;;;17.00;99.90;;;;;;5029252;28;20103;-64
2023/10/05 00:26:39;;;;;;;9.55;2.47;;;17.00;99.90;;;;;;5016112;28;20492;-66
2023/10/05 00:29:08;;;;;;;6.50;2.22;;;17.00;99.90;;;;;;4996904;28;20046;-66
2023/10/05 00:31:39;;;;;;;6.22;2.65;;;17.00;99.90;;;;;;4996413;28;20475;-63
2023/10/05 00:34:24;;;;;;;9.90;2.45;;;16.90;99.90;;;;;;4996201;28;20375;-67
2023/10/05 00:36:50;;;;;;;8.00;2.10;;;17.00;99.90;;;;;;5002499;28;20066;-63
2023/10/05 00:39:20;;;;;;;8.77;2.13;;;16.90;99.90;;;;;;5009991;28;20068;-67
2023/10/05 00:44:32;;;;;;;7.13;2.10;;;16.90;99.90;;;;;;5035199;28;20108;-68
2023/10/05 00:47:03;;;;;;;4.82;1.85;;;16.90;99.90;;;;;;5034839;28;20092;-62
2023/10/05 00:52:15;;;;;;;9.38;2.63;;;16.90;99.90;;;;;;5004580;28;20033;-64
2023/10/05 00:54:51;;;;;;;5.57;2.15;;;16.80;99.90;;;;;;5034796;28;20033;-67
2023/10/05 00:57:19;;;;;;;5.85;2.22;;;16.80;99.90;;;;;;5032488;28;20030;-65
2023/10/05 00:59:54;;;;;;;7.90;3.05;;;16.80;99.90;;;;;;5014912;28;20486;-66
2023/10/05 01:02:21;;;;;;;8.35;1.85;;;16.80;99.90;;;;;;5007716;28;20113;-64
2023/10/05 01:07:28;;;;;;;10.50;2.65;;;16.70;99.90;;;;;;5014363;28;20391;-65
2023/10/05 01:12:38;;;;;;;6.28;1.83;;;16.70;99.90;;;;;;5014930;28;20038;-68
2023/10/05 01:15:07;;;;;;;10.75;2.67;;;16.70;99.90;;;;;;5015114;28;20088;-65
2023/10/05 01:17:35;;;;;;;10.40;2.30;;;16.70;99.90;;;;;;5011379;28;20020;-63
2023/10/05 01:20:13;;;;;;;6.38;2.20;;;16.70;99.90;;;;;;5008536;28;20364;-63
2023/10/05 01:22:39;;;;;;;8.63;2.10;;;16.70;99.90;;;;;;4995510;28;20026;-65
2023/10/05 01:25:06;;;;;;;8.25;2.58;;;16.60;99.90;;;;;;4995085;28;20031;-63
2023/10/05 01:27:32;;;;;;;8.43;2.42;;;16.60;99.90;;;;;;4995140;28;20034;-63
2023/10/05 01:29:59;;;;;;;7.65;2.60;;;16.60;99.90;;;;;;4994926;28;20025;-66
2023/10/05 01:32:26;;;;;;;9.30;2.25;;;16.70;99.90;;;;;;4994970;28;20028;-65
2023/10/05 01:34:52;;;;;;;6.65;2.08;;;16.70;99.90;;;;;;5003076;28;20034;-68
2023/10/05 01:37:22;;;;;;;11.35;2.42;;;16.70;99.90;;;;;;5009931;28;20121;-63
2023/10/05 01:39:48;;;;;;;9.80;2.45;;;16.60;99.90;;;;;;4995177;28;20026;-63
2023/10/05 01:42:14;;;;;;;6.65;1.98;;;16.60;99.90;;;;;;4994600;28;20084;-63
2023/10/05 01:44:47;;;;;;;5.78;2.20;;;16.70;99.90;;;;;;4999541;28;20049;-63
2023/10/05 01:47:16;;;;;;;8.02;2.65;;;16.70;99.90;;;;;;5014438;28;20102;-63
2023/10/05 01:49:50;;;;;;;6.18;2.00;;;16.70;99.90;;;;;;5014743;28;20014;-63
2023/10/05 01:52:20;;;;;;;8.55;1.85;;;16.70;99.90;;;;;;5014205;28;20029;-64
2023/10/05 01:54:46;;;;;;;9.35;2.22;;;16.70;99.90;;;;;;5013562;28;20022;-65
2023/10/05 01:57:16;;;;;;;7.90;2.22;;;16.80;99.90;;;;;;5013968;28;20103;-63
2023/10/05 01:59:43;;;;;;;11.32;3.25;;;16.70;99.90;;;;;;5014286;28;20144;-62
2023/10/05 02:02:10;;;;;;;10.32;2.42;;;16.70;99.90;;;;;;5013978;28;20087;-65
2023/10/05 02:04:39;;;;;;;8.02;2.15;;;16.70;99.90;;;;;;5013196;28;20064;-63
2023/10/05 02:07:05;;;;;;;7.90;2.15;;;16.70;99.90;;;;;;5014044;28;20029;-62
2023/10/05 02:09:31;;;;;;;11.32;2.28;;;16.70;99.90;;;;;;5014233;28;20058;-63
2023/10/05 02:12:01;;;;;;;7.82;2.17;;;16.70;99.90;;;;;;5013902;28;20018;-65
2023/10/05 02:14:30;;;;;;;9.73;2.85;;;16.60;99.90;;;;;;5011094;28;20046;-62
2023/10/05 02:16:57;;;;;;;6.53;1.55;;;16.60;99.90;;;;;;4993386;28;20025;-62
2023/10/05 02:19:23;;;;;;;9.93;2.55;;;16.70;99.90;;;;;;4994558;28;20026;-62
2023/10/05 02:21:54;;;;;;;7.22;1.98;;;16.60;99.90;;;;;;4994199;28;20376;-62
2023/10/05 02:24:22;;;;;;;6.38;2.22;;;16.60;99.90;;;;;;4994027;28;20019;-64
2023/10/05 02:29:18;;;;;;;7.45;1.80;;;16.70;99.90;;;;;;4994258;28;20436;-63
2023/10/05 02:34:59;;;;;;;7.15;2.15;;;16.60;99.90;;;;;;5013443;28;20037;-64
2023/10/05 02:37:19;;;;;;;6.18;1.77;;;16.60;99.90;;;;;;5013152;28;20037;-62
2023/10/05 02:39:45;;;;;;;6.88;2.05;;;16.60;99.90;;;;;;5013523;28;20026;-62
2023/10/05 02:42:16;;;;;;;6.85;2.20;;;16.60;99.90;;;;;;5005399;28;20446;-63
2023/10/05 02:44:45;;;;;;;8.75;3.00;;;16.60;99.90;;;;;;4994104;28;20018;-63
2023/10/05 02:47:13;;;;;;;8.63;2.00;;;16.60;99.90;;;;;;4993933;28;20073;-62
2023/10/05 02:49:44;;;;;;;7.13;1.77;;;16.60;99.90;;;;;;4993983;28;20996;-63
2023/10/05 02:52:13;;;;;;;9.25;2.10;;;16.60;99.90;;;;;;4993674;28;20416;-62
2023/10/05 02:54:40;;;;;;;8.68;2.45;;;16.60;99.90;;;;;;4993762;28;20064;-64
2023/10/05 02:57:14;;;;;;;5.95;2.05;;;16.50;99.90;;;;;;4993717;28;20022;-62
2023/10/05 02:59:40;;;;;;;8.02;2.30;;;16.50;99.90;;;;;;4993749;28;20101;-64
2023/10/05 03:02:07;;;;;;;9.85;2.25;;;16.60;99.90;;;;;;4993426;28;20069;-65
2023/10/05 03:07:18;;;;;;;9.15;1.95;;;16.50;99.90;;;;;;4994495;28;20138;-64
2023/10/05 03:09:46;;;;;;;10.00;2.53;;;16.50;99.90;;;;;;4993364;28;20472;-66
2023/10/05 03:12:13;;;;;;;6.47;2.13;;;16.50;99.90;;;;;;4993906;28;20077;-63
2023/10/05 03:14:43;;;;;;;10.63;2.53;;;16.50;99.90;;;;;;4993617;28;20030;-63
2023/10/05 03:17:14;;;;;;;7.90;2.30;;;16.50;99.90;;;;;;4993522;28;20026;-66
2023/10/05 03:19:40;;;;;;;5.60;2.10;;;16.50;99.90;;;;;;4993782;28;20035;-66
2023/10/05 03:22:12;;;;;;;10.63;2.83;;;16.40;99.90;;;;;;4993729;28;20125;-69
2023/10/05 03:24:44;;;;;;;13.10;2.88;;;16.50;99.90;;;;;;4999509;28;20025;-64
2023/10/05 03:27:10;;;;;;;8.38;2.10;;;16.50;99.90;;;;;;5013323;28;20105;-67
2023/10/05 03:29:38;;;;;;;15.18;2.90;;;16.40;99.90;;;;;;5004640;28;20510;-66
2023/10/05 03:34:34;;;;;;;7.50;2.05;;;16.40;99.90;;;;;;4998793;28;20045;-66
2023/10/05 03:37:08;;;;;;;8.05;3.22;;;16.40;99.90;;;;;;5013041;28;20057;-67
2023/10/05 03:39:53;;;;;;;7.13;2.25;;;16.40;99.90;;;;;;5012900;28;20021;-65
2023/10/05 03:42:21;;;;;;;5.88;2.17;;;16.40;99.90;;;;;;5013288;28;20042;-64
2023/10/05 03:45:00;;;;;;;7.97;2.40;;;16.40;99.90;;;;;;5004660;28;20026;-64
2023/10/05 03:47:26;;;;;;;7.95;2.42;;;16.40;99.90;;;;;;5011881;28;20080;-64
2023/10/05 03:49:55;;;;;;;8.05;2.45;;;16.30;99.90;;;;;;5015157;28;20026;-64
2023/10/05 03:52:21;;;;;;;9.00;2.63;;;16.40;99.90;;;;;;5013801;28;20566;-64
2023/10/05 03:54:47;;;;;;;13.20;3.33;;;16.40;99.90;;;;;;5008117;28;20054;-64
2023/10/05 03:57:13;;;;;;;7.15;2.45;;;16.30;99.90;;;;;;4995944;28;20045;-70
2023/10/05 03:59:39;;;;;;;10.73;3.30;;;16.30;99.90;;;;;;4996947;28;20019;-64
2023/10/05 04:02:09;;;;;;;10.68;2.63;;;16.40;99.90;;;;;;4996977;28;20038;-64
2023/10/05 04:04:35;;;;;;;12.32;3.13;;;16.30;99.90;;;;;;4996186;28;20081;-64
2023/10/05 04:07:02;;;;;;;10.43;2.78;;;16.30;99.90;;;;;;4996442;28;20820;-63
2023/10/05 04:09:30;;;;;;;7.63;2.10;;;16.30;99.90;;;;;;4997035;28;20022;-64
2023/10/05 04:11:57;;;;;;;10.48;3.42;;;16.30;99.90;;;;;;4996867;28;20050;-69
2023/10/05 04:14:26;;;;;;;9.27;2.45;;;16.30;99.90;;;;;;4996552;28;20014;-68
2023/10/05 04:16:53;;;;;;;11.07;3.83;;;16.30;99.90;;;;;;4996514;28;20085;-65
2023/10/05 04:19:19;;;;;;;9.45;2.50;;;16.30;99.90;;;;;;4996114;28;20034;-65
2023/10/05 04:21:45;;;;;;;8.88;2.90;;;16.40;99.90;;;;;;4996125;28;20041;-66
2023/10/05 04:24:14;;;;;;;16.67;3.15;;;16.30;99.90;;;;;;5007012;28;20395;-67
2023/10/05 04:26:45;;;;;;;12.02;2.75;;;16.40;99.90;;;;;;5016024;28;20032;-67
2023/10/05 04:29:16;;;;;;;5.60;1.90;;;16.50;99.90;;;;;;5015987;28;20433;-65
2023/10/05 04:31:48;;;;;;;7.07;2.50;;;16.60;99.90;;;;;;5015944;28;20026;-65
2023/10/05 04:34:19;;;;;;;5.60;2.33;;;16.60;99.90;;;;;;5003766;28;20539;-68
2023/10/05 04:36:48;;;;;;;6.40;2.30;;;16.60;99.90;;;;;;4999536;28;20037;-65
2023/10/05 04:39:21;;;;;;;7.05;2.55;;;16.60;99.90;;;;;;4996734;28;20494;-65
2023/10/05 04:41:50;;;;;;;11.85;2.97;;;16.70;99.90;;;;;;4996421;28;20034;-65
2023/10/05 04:44:16;;;;;;;12.43;3.15;;;16.70;99.90;;;;;;4996234;28;20046;-72
2023/10/05 04:46:48;;;;;;;7.63;2.58;;;16.70;99.90;;;;;;4995986;28;20060;-65
2023/10/05 04:49:15;;;;;;;8.73;2.80;;;16.60;99.90;;;;;;4996351;28;20076;-66
2023/10/05 04:51:41;;;;;;;7.38;2.15;;;16.60;99.90;;;;;;4997381;28;20022;-67
2023/10/05 04:54:10;;;;;;;8.27;2.10;;;16.60;99.90;;;;;;5001225;28;20033;-66
2023/10/05 04:56:43;;;;;;;9.95;2.28;;;16.70;99.90;;;;;;5002630;28;20021;-65
2023/10/05 05:07:09;;;;;;;4.97;1.60;;;16.80;99.90;;;;;;5001602;28;20048;-64
2023/10/05 05:09:41;;;;;;;6.68;1.92;;;16.90;99.90;;;;;;5008557;28;20054;-68
2023/10/05 05:12:09;;;;;;;5.30;1.95;;;16.90;99.90;;;;;;5001034;28;20044;-65
2023/10/05 05:14:41;;;;;;;10.68;2.33;;;16.90;99.90;;;;;;5014339;28;20088;-66
2023/10/05 05:17:07;;;;;;;6.18;1.60;;;16.90;99.90;;;;;;4997236;28;20097;-67
2023/10/05 05:19:36;;;;;;;5.40;2.22;;;16.90;99.90;;;;;;5014346;28;20035;-66
2023/10/05 05:22:04;;;;;;;10.95;2.50;;;16.90;99.90;;;;;;5014719;28;20041;-68
2023/10/05 05:24:31;;;;;;;8.40;2.33;;;16.90;99.90;;;;;;5004688;28;20472;-66
2023/10/05 05:27:45;;;;;;;8.70;2.80;;;16.90;99.90;;;;;;5011617;28;20029;-66
2023/10/05 05:29:44;;;;;;;9.55;2.35;;;16.90;99.90;;;;;;5003404;28;20546;-68
2023/10/05 05:32:10;;;;;;;6.28;2.20;;;16.90;99.90;;;;;;5014000;28;20029;-65
2023/10/05 05:34:42;;;;;;;7.97;2.63;;;16.90;99.90;;;;;;5013206;28;20033;-66
2023/10/05 05:37:19;;;;;;;9.57;2.97;;;16.90;99.90;;;;;;5013575;28;20030;-65
2023/10/05 05:39:45;;;;;;;9.30;2.10;;;16.90;99.90;;;;;;5013531;28;20053;-67
2023/10/05 05:42:14;;;;;;;10.60;2.75;;;16.90;99.90;;;;;;5010837;28;20527;-65
2023/10/05 05:44:41;;;;;;;6.15;2.28;;;16.90;99.90;;;;;;5002187;28;20045;-65
2023/10/05 05:47:10;;;;;;;8.52;2.20;;;16.90;99.90;;;;;;5014062;28;20364;-66
2023/10/05 05:49:45;;;;;;;10.10;3.13;;;16.90;99.90;;;;;;5013980;28;20020;-66
2023/10/05 05:52:12;;;;;;;7.72;2.40;;;16.90;99.90;;;;;;5014189;28;20045;-66
2023/10/05 05:54:42;;;;;;;13.27;2.70;;;16.80;99.90;;;;;;5014437;28;20018;-67
2023/10/05 05:57:09;;;;;;;9.48;3.00;;;16.90;99.90;;;;;;5014263;28;20033;-74
2023/10/05 05:59:38;;;;;;;6.90;2.60;;;16.80;99.90;;;;;;5006133;28;20361;-65
2023/10/05 06:02:06;;;;;;;9.57;2.50;;;16.80;99.90;;;;;;4996560;28;20038;-65
2023/10/05 06:04:32;;;;;;;9.70;3.00;;;16.80;99.90;;;;;;4995583;28;20100;-65
2023/10/05 06:07:11;;;;;;;9.90;2.80;;;16.80;99.90;;;;;;4994415;28;20030;-66
2023/10/05 06:09:40;;;;;;;8.48;2.90;;;16.70;99.90;;;;;;4994081;28;20110;-65
2023/10/05 06:12:06;;;;;;;13.32;3.20;;;16.80;99.90;;;;;;4994289;28;20436;-66
2023/10/05 06:14:34;;;;;;;16.90;3.20;;;16.70;99.90;;;;;;4994661;28;20081;-63
2023/10/05 06:17:00;;;;;;;8.88;3.00;;;16.70;99.90;;;;;;4993977;28;20058;-63
2023/10/05 06:19:26;;;;;;;22.05;3.53;;;16.70;99.90;;;;;;4994482;28;20034;-66
2023/10/05 06:21:52;;;;;;;10.43;3.58;;;16.70;99.90;;;;;;4995518;28;20037;-64
2023/10/05 06:24:18;;;;;;;13.95;3.08;;;16.80;99.90;;;;;;4994056;28;20034;-64
2023/10/05 06:26:45;;;;;;;13.68;3.30;;;16.80;99.90;;;;;;4993955;28;20019;-64
2023/10/05 06:29:13;;;;;;;11.20;2.58;;;16.80;99.90;;;;;;4994380;28;20023;-66
2023/10/05 06:31:40;;;;;;;8.25;2.45;;;16.80;99.90;;;;;;4993780;28;20022;-64
2023/10/05 06:34:09;;;;;;;9.63;2.90;;;16.80;99.90;;;;;;4994183;28;20050;-64
2023/10/05 06:36:38;;;;;;;7.50;2.65;;;16.80;99.90;;;;;;4994012;28;20468;-64
2023/10/05 06:39:09;;;;;;;8.38;2.35;;;16.80;99.90;;;;;;4994026;28;20023;-64
2023/10/05 06:41:36;;;;;;;8.05;2.40;;;16.80;99.90;;;;;;4994016;28;20048;-68
2023/10/05 06:44:02;;;;;;;10.48;2.72;;;16.90;99.90;;;;;;4994054;28;20054;-67
2023/10/05 06:46:28;;;;;;;7.03;2.65;;;16.90;99.90;;;;;;4993754;28;20033;-63
2023/10/05 06:48:55;;;;;;;9.90;2.67;;;16.90;99.90;;;;;;4993901;28;20022;-63
2023/10/05 06:51:27;;;;;;;9.02;2.88;;;16.90;99.90;;;;;;4993887;28;20035;-63
2023/10/05 06:53:59;;;;;;;6.32;2.40;;;16.90;99.90;;;;;;4993885;28;20464;-63
2023/10/05 06:56:26;;;;;;;5.60;2.58;;;16.90;99.90;;;;;;4993841;28;20030;-63
2023/10/05 06:58:52;;;;;;;15.68;2.95;;;16.90;99.90;;;;;;4993770;28;20029;-64
2023/10/05 07:01:20;;;;;;;11.38;2.85;;;16.90;99.90;;;;;;4993539;28;20034;-63
2023/10/05 07:03:53;;;;;;;14.80;3.75;;;16.90;99.90;;;;;;4993648;28;20022;-63
2023/10/05 07:06:25;;;;;;;10.75;3.00;;;16.90;99.90;;;;;;4993670;28;20088;-67
2023/10/05 07:08:54;;;;;;;10.27;2.92;;;17.00;99.90;;;;;;4993592;28;20503;-64
2023/10/05 07:11:20;;;;;;;13.10;3.13;;;17.00;99.90;;;;;;4993735;28;20042;-63
2023/10/05 07:13:46;;;;;;;11.18;2.75;;;16.90;99.90;;;;;;4993594;28;20023;-64
2023/10/05 07:16:12;;;;;;;8.80;2.67;;;17.00;99.90;;;;;;4993480;28;20540;-66
2023/10/05 07:18:39;;;;;;;9.05;2.80;;;16.90;99.90;;;;;;4993510;28;20019;-64
2023/10/05 07:21:08;;;;;;;12.73;2.72;;;16.90;99.90;;;;;;4997156;28;20038;-64
2023/10/05 07:23:37;;;;;;;10.95;3.00;;;16.90;99.90;;;;;;4997525;28;20022;-64
2023/10/05 07:26:07;;;;;;;15.73;3.47;;;16.90;99.90;;;;;;4997725;28;20569;-63
2023/10/05 07:28:34;;;;;;;10.35;3.30;;;16.90;99.90;;;;;;4997381;28;20379;-64
2023/10/05 07:31:02;;;;;;;17.13;3.40;;;16.90;99.90;;;;;;4997157;28;20026;-63
2023/10/05 07:33:29;;;;;;;8.55;3.20;;;16.90;99.90;;;;;;4997364;28;20061;-70
2023/10/05 07:35:54;;;;;;;8.68;2.92;;;16.90;99.90;;;;;;4997646;28;20052;-67
2023/10/05 07:38:22;;;;;;;11.35;3.50;;;16.90;99.90;;;;;;4997262;28;20030;-70
2023/10/05 07:40:47;;;;;;;12.05;3.17;;;16.90;99.90;;;;;;4996027;28;20034;-67
2023/10/05 07:43:13;;;;;;;9.82;3.00;;;16.90;99.90;;;;;;4997225;28;20487;-63
2023/10/05 07:45:39;;;;;;;11.43;3.13;;;16.90;99.90;;;;;;4996941;28;20113;-64
2023/10/05 07:48:06;;;;;;;14.48;3.15;;;17.00;99.90;;;;;;4997049;28;20019;-62
2023/10/05 07:50:32;;;;;;;12.93;4.07;;;16.90;99.90;;;;;;4997046;28;20376;-62
2023/10/05 07:52:58;;;;;;;11.68;3.40;;;16.90;99.90;;;;;;4997079;28;20472;-64
2023/10/05 07:55:24;;;;;;;10.75;3.08;;;17.00;99.90;;;;;;4997007;28;20494;-62
2023/10/05 07:57:51;;;;;;;9.57;3.00;;;17.00;99.90;;;;;;4996920;28;20034;-62
2023/10/05 08:00:19;;;;;;;11.70;4.00;;;16.90;99.90;;;;;;4996462;28;20468;-62
2023/10/05 08:02:46;;;;;;;8.32;2.67;;;16.90;99.90;;;;;;4997032;28;20037;-62
2023/10/05 08:05:12;;;;;;;9.60;3.10;;;16.90;99.90;;;;;;4996595;28;20089;-63
2023/10/05 08:07:38;;;;;;;7.32;3.13;;;17.00;99.90;;;;;;4996740;28;20026;-63
2023/10/05 08:10:06;;;;;;;11.43;2.83;;;17.00;99.90;;;;;;4996748;28;20045;-63
2023/10/05 08:12:32;;;;;;;9.30;3.00;;;17.00;99.90;;;;;;4996660;28;20397;-62
2023/10/05 08:14:57;;;;;;;7.72;2.65;;;17.10;99.90;;;;;;4996342;28;20027;-62
2023/10/05 08:17:24;;;;;;;10.55;2.85;;;17.10;99.90;;;;;;4996819;28;20491;-63
2023/10/05 08:19:49;;;;;;;7.80;3.22;;;17.00;99.90;;;;;;4996569;28;20027;-64
2023/10/05 08:22:18;;;;;;;7.75;3.05;;;17.10;99.90;;;;;;4999261;28;20546;-63
2023/10/05 08:24:43;;;;;;;10.55;3.60;;;17.10;99.90;;;;;;5015650;28;20041;-63
2023/10/05 08:27:14;;;;;;;15.75;3.25;;;17.10;99.90;;;;;;5015854;28;20034;-63
2023/10/05 08:29:44;;;;;;;13.25;3.83;;;17.10;99.90;;;;;;5015134;28;20030;-63
2023/10/05 08:32:13;;;;;;;13.65;3.58;;;17.10;99.90;;;;;;5014201;28;20057;-63
2023/10/05 08:34:41;;;;;;;7.97;2.97;;;17.10;99.90;;;;;;5015962;28;20120;-62
2023/10/05 08:37:08;;;;;;;13.45;2.97;;;17.10;99.90;;;;;;5015712;28;20058;-62
2023/10/05 08:39:37;;;;;;;10.38;2.92;;;17.20;99.90;;;;;;5015070;28;20388;-63
2023/10/05 08:42:06;;;;;;;10.05;2.85;;;17.20;99.90;;;;;;5015418;28;20475;-64
2023/10/05 08:44:36;;;;;;;12.85;2.92;;;17.10;99.90;;;;;;5016143;28;20029;-62
2023/10/05 08:47:05;;;;;;;11.20;3.50;;;17.20;99.90;;;;;;5015876;28;20032;-63
2023/10/05 08:49:33;;;;;;;11.32;2.72;;;17.20;99.90;;;;;;5015608;28;20018;-63
2023/10/05 08:51:59;;;;;;;8.80;2.72;;;17.20;99.90;;;;;;5014911;28;20018;-63
2023/10/05 08:54:28;;;;;;;12.57;3.17;;;17.20;99.90;;;;;;5015089;28;20022;-63
2023/10/05 08:56:58;;;;;;;9.00;2.70;;;17.20;99.90;;;;;;5015348;28;20108;-63
2023/10/05 08:59:26;;;;;;;14.82;3.47;;;17.20;99.90;;;;;;5015681;28;20026;-63
2023/10/05 09:01:53;;;;;;;8.80;2.60;;;17.20;99.90;;;;;;5015322;28;20077;-63
2023/10/05 09:06:56;;;;;;;9.90;3.45;;;17.20;99.90;;;;;;5015285;28;20467;-63
2023/10/05 09:09:37;;;;;;;7.30;2.53;;;17.30;99.90;;;;;;5015172;28;20479;-63
2023/10/05 09:12:34;;;;;;;9.73;3.47;;;17.30;99.90;;;;;;5014992;28;20030;-63
2023/10/05 09:15:08;;;;;;;10.25;3.03;;;17.30;99.90;;;;;;5014774;28;20498;-63
2023/10/05 09:17:34;;;;;;;6.00;2.40;;;17.30;99.90;;;;;;5014676;28;20084;-63
2023/10/05 09:20:22;;;;;;;8.57;2.30;;;17.30;99.90;;;;;;5013714;28;20022;-63
2023/10/05 09:22:50;;;;;;;6.60;2.30;;;17.30;99.90;;;;;;5015156;28;20038;-63
2023/10/05 09:25:17;;;;;;;8.05;2.42;;;17.30;99.90;;;;;;5014807;28;20045;-63
2023/10/05 09:27:50;;;;;;;9.88;3.08;;;17.30;99.90;;;;;;5014938;28;20040;-65
2023/10/05 09:30:20;;;;;;;7.30;2.00;;;17.30;99.90;;;;;;5014904;28;20523;-63
2023/10/05 09:32:46;;;;;;;9.85;2.78;;;17.40;99.90;;;;;;5014714;28;20056;-63
2023/10/05 09:35:27;;;;;;;6.32;2.30;;;17.40;99.90;;;;;;5014708;28;20117;-63
2023/10/05 09:38:00;;;;;;;8.52;2.70;;;17.40;99.90;;;;;;5010147;28;20038;-63
2023/10/05 09:40:28;;;;;;;6.72;2.70;;;17.40;99.90;;;;;;4997934;28;20022;-63
2023/10/05 09:43:00;;;;;;;8.95;2.00;;;17.40;99.90;;;;;;5011818;28;20076;-63
2023/10/05 09:45:29;;;;;;;6.65;2.03;;;17.40;99.90;;;;;;5014365;28;20523;-63
2023/10/05 09:48:01;;;;;;;10.93;2.95;;;17.40;99.90;;;;;;5013511;28;20433;-63
2023/10/05 09:50:29;;;;;;;7.10;2.55;;;17.40;99.90;;;;;;5024024;28;20029;-63
2023/10/05 09:52:59;;;;;;;6.90;2.28;;;17.40;99.90;;;;;;4994715;28;20026;-63
2023/10/05 09:55:25;;;;;;;6.03;2.30;;;17.50;99.90;;;;;;5017113;28;20026;-63
2023/10/05 09:57:51;;;;;;;7.18;2.75;;;17.50;99.90;;;;;;4998534;28;20501;-63
2023/10/05 10:00:30;;;;;;;6.93;2.40;;;17.50;99.90;;;;;;5014231;28;20049;-63
2023/10/05 10:03:01;;;;;;;6.68;2.50;;;17.50;99.90;;;;;;5012176;28;20064;-62
2023/10/05 10:05:42;;;;;;;6.95;3.00;;;17.50;99.90;;;;;;5012260;28;20072;-63
2023/10/05 10:08:25;;;;;;;6.28;2.42;;;17.50;99.90;;;;;;5010561;28;20487;-64
2023/10/05 10:11:17;;;;;;;6.80;2.22;;;17.50;99.90;;;;;;5000287;28;21281;-63
2023/10/05 10:13:51;;;;;;;5.43;2.50;;;17.50;99.90;;;;;;5018379;28;20018;-63
2023/10/05 10:16:21;;;;;;;7.65;2.40;;;17.50;99.90;;;;;;5004868;28;20061;-64
2023/10/05 10:18:52;;;;;;;7.47;2.88;;;17.60;99.90;;;;;;5000626;28;20023;-64
2023/10/05 10:21:24;;;;;;;9.88;2.25;;;17.60;99.90;;;;;;4995113;28;20037;-64
2023/10/05 10:23:50;;;;;;;;;;;17.70;99.90;;;;;;4994469;28;20058;-64
2023/10/05 10:26:24;;;;;;;6.68;1.90;;;17.70;99.90;;;;;;4994286;28;20286;-63
2023/10/05 10:28:56;;;;;;;5.03;2.47;;;17.70;99.90;;;;;;4994313;28;20022;-63
2023/10/05 10:31:29;;;;;;;6.05;2.08;;;17.70;99.90;;;;;;5011233;28;20030;-63
2023/10/05 10:34:05;;;;;;;10.20;3.17;;;17.70;99.90;;;;;;5012594;28;20191;-64
2023/10/05 10:36:56;;;;;;;8.18;2.33;;;17.70;99.90;;;;;;5001014;28;20325;-62
2023/10/05 10:39:23;;;;;;;6.60;2.05;;;17.80;99.90;;;;;;4992750;28;20026;-63
2023/10/05 10:42:09;;;;;;;10.57;2.22;;;17.80;99.90;;;;;;4999759;28;20053;-64
2023/10/05 10:47:22;;;;;;;7.15;2.30;;;17.80;99.90;;;;;;5013596;28;20483;-67
2023/10/05 10:50:11;;;;;;;9.90;2.60;;;17.80;99.90;;;;;;5013208;28;20475;-72
2023/10/05 10:52:38;;;;;;;8.60;2.35;;;17.80;99.90;;;;;;5012966;28;20129;-66
2023/10/05 10:55:08;;;;;;;6.20;2.50;;;17.80;99.90;;;;;;5013007;28;20022;-66
2023/10/05 10:57:36;;;;;;;9.02;2.33;;;17.90;99.90;;;;;;5008025;28;20040;-66
2023/10/05 11:02:49;;;;;;;10.85;2.33;;;17.90;99.90;;;;;;5013348;28;20041;-66
2023/10/05 11:05:15;;;;;;;8.25;2.50;;;17.90;99.90;;;;;;5010377;28;20037;-66
2023/10/05 11:07:44;;;;;;;6.53;2.40;;;17.90;99.90;;;;;;5009612;28;20033;-65
2023/10/05 11:10:19;;;;;;;9.27;2.58;;;17.90;99.90;;;;;;5008238;28;20033;-64
2023/10/05 11:12:57;;;;;;;6.10;2.25;;;17.90;99.90;;;;;;5009116;28;20030;-66
2023/10/05 11:15:30;;;;;;;12.10;2.67;;;17.90;99.90;;;;;;5007437;28;20022;-68
2023/10/05 11:18:00;;;;;;;9.98;2.70;;;18.00;99.90;;;;;;4993592;28;20038;-66
2023/10/05 11:20:32;;;;;;;8.30;2.50;;;18.00;99.90;;;;;;5011371;28;20033;-66
2023/10/05 11:23:03;;;;;;;7.57;2.60;;;18.10;99.90;;;;;;5005616;28;20037;-66
2023/10/05 11:25:32;;;;;;;9.82;2.40;;;18.00;99.90;;;;;;4993764;28;20031;-66
2023/10/05 11:27:59;;;;;;;9.02;2.58;;;18.00;99.90;;;;;;4994783;28;20042;-66
2023/10/05 11:30:41;;;;;;;5.22;1.85;;;18.00;99.90;;;;;;5013192;28;20090;-66
2023/10/05 11:33:15;;;;;;;6.20;2.10;;;18.10;99.90;;;;;;5007626;28;20475;-65
2023/10/05 11:35:49;;;;;;;7.97;2.20;;;18.10;99.90;;;;;;5012822;28;20030;-65
2023/10/05 11:38:19;;;;;;;7.43;2.08;;;18.10;99.90;;;;;;5003821;28;20026;-73
2023/10/05 11:40:56;;;;;;;9.25;2.45;;;18.10;99.90;;;;;;4995167;28;20026;-71
2023/10/05 11:43:22;;;;;;;8.70;3.00;;;18.10;99.90;;;;;;5011264;28;20121;-65
2023/10/05 11:45:57;;;;;;;5.25;2.22;;;18.10;99.90;;;;;;5005196;28;20014;-67
2023/10/05 11:48:42;;;;;;;8.88;2.33;;;18.10;99.90;;;;;;4992615;28;20064;-74
2023/10/05 11:51:13;;;;;;;9.43;2.33;;;18.20;99.90;;;;;;4992322;28;20484;-67
2023/10/05 11:53:39;;;;;;;6.55;2.05;;;18.20;99.90;;;;;;4992132;28;20022;-73
2023/10/05 11:56:09;;;;;;;7.70;2.35;;;18.20;99.90;;;;;;4992297;28;20022;-74
2023/10/05 11:58:41;;;;;;;7.05;1.83;;;18.20;99.90;;;;;;5003832;28;20124;-66
2023/10/05 12:01:09;;;;;;;7.10;2.10;;;18.20;99.90;;;;;;5012116;28;20030;-74
2023/10/05 12:03:43;;;;;;;7.13;2.03;;;18.20;99.90;;;;;;5012127;28;20046;-66
2023/10/05 12:06:11;;;;;;;8.07;2.25;;;18.30;99.90;;;;;;5009883;28;20538;-67
2023/10/05 12:08:37;;;;;;;6.93;2.05;;;18.20;99.90;;;;;;4999936;28;20059;-67
2023/10/05 12:11:03;;;;;;;8.15;2.05;;;18.30;99.90;;;;;;5014695;28;20033;-68
2023/10/05 12:13:29;;;;;;;8.07;2.83;;;18.30;99.90;;;;;;5015640;28;20026;-68
2023/10/05 12:15:55;;;;;;;7.43;1.77;;;18.30;99.90;;;;;;5015039;28;20047;-69
2023/10/05 12:18:22;;;;;;;5.05;1.52;;;18.30;99.90;;;;;;5011195;28;20102;-68
2023/10/05 12:20:51;;;;;;;8.13;2.08;;;18.30;99.90;;;;;;5009865;28;20046;-71
2023/10/05 12:23:17;;;;;;;7.63;1.92;;;18.40;99.90;;;;;;5015039;28;20030;-70
2023/10/05 12:25:47;;;;;;;7.18;2.08;;;18.40;99.90;;;;;;5011111;28;20075;-66
2023/10/05 12:28:14;;;;;;;6.03;2.00;;;18.40;99.90;;;;;;5014481;28;20022;-65
2023/10/05 12:30:44;;;;;;;6.35;1.80;;;18.40;99.90;;;;;;5014737;28;20026;-66
2023/10/05 12:33:10;;;;;;;5.97;1.60;;;18.40;99.90;;;;;;5006634;28;20029;-68
2023/10/05 12:35:36;;;;;;;7.13;2.08;;;18.40;99.90;;;;;;5013216;28;20076;-67
2023/10/05 12:38:06;;;;;;;8.70;1.48;;;18.40;99.90;;;;;;5004941;28;20038;-66
2023/10/05 12:40:33;;;;;;;6.57;1.83;;;18.40;99.90;;;;;;5003750;28;20467;-66
2023/10/05 12:43:00;;;;;;;9.38;2.08;;;18.50;99.90;;;;;;5015914;28;20388;-65
2023/10/05 12:45:26;;;;;;;8.05;1.63;;;18.50;99.90;;;;;;5015706;28;20022;-66
2023/10/05 12:47:55;;;;;;;4.75;1.58;;;18.50;99.90;;;;;;5014204;28;20099;-66
2023/10/05 12:50:22;;;;;;;6.90;1.38;;;18.60;99.90;;;;;;5015133;28;20111;-66
2023/10/05 12:52:50;;;;;;;6.70;1.17;;;18.60;99.90;;;;;;5015125;28;20475;-66
2023/10/05 12:55:18;;;;;;;5.28;1.45;;;18.60;99.90;;;;;;5012001;28;20022;-65
2023/10/05 12:57:50;;;;;;;4.53;1.52;;;18.60;99.90;;;;;;4995823;28;20030;-66
2023/10/05 13:00:21;;;;;;;5.53;1.42;;;18.70;99.90;;;;;;4994884;28;20040;-65
2023/10/05 13:02:51;;;;;;;5.50;1.55;;;18.60;99.90;;;;;;5016075;28;20034;-66
2023/10/05 13:05:21;;;;;;;7.22;1.58;;;18.60;99.90;;;;;;4998692;28;20499;-65
2023/10/05 13:07:50;;;;;;;4.93;1.45;;;18.70;99.90;;;;;;4994742;28;20081;-65
2023/10/05 13:10:32;;;;;;;6.35;1.85;;;18.70;99.90;;;;;;5018026;28;20015;-66
2023/10/05 13:13:01;;;;;;;4.95;1.42;;;18.70;99.90;;;;;;4996187;28;20037;-66
2023/10/05 13:15:35;;;;;;;4.20;1.52;;;18.70;99.90;;;;;;4994738;28;20383;-65
2023/10/05 13:18:18;;;;;;;6.35;1.42;;;18.70;99.90;;;;;;5010821;28;20018;-65
2023/10/05 13:20:49;;;;;;;5.90;1.40;;;18.70;99.90;;;;;;5026078;28;20100;-65
2023/10/05 13:23:18;;;;;;;5.70;1.30;;;18.70;99.90;;;;;;5010706;28;20022;-64
2023/10/05 13:25:51;;;;;;;7.35;1.58;;;18.80;99.90;;;;;;5012569;28;20113;-69
2023/10/05 13:28:17;;;;;;;;;;;18.80;99.90;;;;;;5014054;28;20052;-64
2023/10/05 13:30:46;;;;;;;6.55;1.50;;;18.80;99.80;;;;;;5008174;28;20047;-67
2023/10/05 13:33:13;;;;;;;4.75;1.58;;;18.80;99.90;;;;;;4994422;28;20071;-66
2023/10/05 13:35:42;;;;;;;6.40;1.17;;;18.90;99.80;;;;;;4995544;28;20038;-64